Аэропорт: Нижневартовск. Нижневартовск

ICAO: USNN

METAR:
2018/05/20 23:00
USNN 202300Z 17003MPS CAVOK 08/07 Q1001 R21/220256 NOSIG RMK QFE746
METAR:
2018/05/20 21:21
TAF USNN 202000Z 2021/2121 20003MPS 4000 -RA BR BKN010 
      TEMPO 2021/2024 0800 FG VV002 
      BECMG 2106/2107 31007G13MPS